Santo Tome, Argentina
Current Conditions -  °F | °C
As of 5:00 PM on Saturday 25 Oct 2014 (Local Time) from SARP Reporting Station
Few Clouds Few Clouds  
Wind Chill: 95°   Ceiling: Unl
Heat Index: 95°   Visibility: 6mi
Dew Point: 55°   Wind: 7mph
Humidity: 26%   Direction: 230°SW
Pressure: 29.8"   Gusts: NA
Location:  28.55°S, 56.04°W
Report Text: SARP 252000Z 23006KT 9999 FEW025 35/13 Q1009
Loading
Personal Weather Stations






























Interactive Weather Map
Tropical Storm Tracking
New forecast layout! Learn more

10-Day Weather Forecast

Advertisements
Track Severe Weather on mobile